createdAt,value
2018-06-11T00:00:40.780Z,95.5
2018-06-11T00:01:42.174Z,95.4
2018-06-11T00:02:43.566Z,95.3
2018-06-11T00:03:44.958Z,95.9
2018-06-11T00:04:46.349Z,95.3
2018-06-11T00:05:47.746Z,95.5
2018-06-11T00:06:49.137Z,95.5
2018-06-11T00:07:50.533Z,95.5
2018-06-11T00:08:51.926Z,95.7
2018-06-11T00:09:53.323Z,95.7
2018-06-11T00:10:54.708Z,95.7
2018-06-11T00:11:56.102Z,95.6
2018-06-11T00:12:57.494Z,95.3
2018-06-11T00:13:58.888Z,95.0
2018-06-11T00:15:00.285Z,95.3
2018-06-11T00:16:01.679Z,95.3
2018-06-11T00:17:03.081Z,95.4
2018-06-11T00:18:04.472Z,95.4
2018-06-11T00:19:05.863Z,95.6
2018-06-11T00:20:07.254Z,95.4
2018-06-11T00:21:08.648Z,96.4
2018-06-11T00:22:10.060Z,96.1
2018-06-11T00:23:11.438Z,96.0
2018-06-11T00:24:12.832Z,96.0
2018-06-11T00:25:14.224Z,96.0
2018-06-11T00:26:15.615Z,96.0
2018-06-11T00:27:17.003Z,96.8
2018-06-11T00:28:18.399Z,95.9
2018-06-11T00:29:19.795Z,95.7
2018-06-11T00:30:21.191Z,96.2
2018-06-11T00:31:22.584Z,96.7
2018-06-11T00:32:23.977Z,96.5
2018-06-11T00:33:25.366Z,96.4
2018-06-11T00:34:26.758Z,96.4
2018-06-11T00:35:28.208Z,96.4
2018-06-11T00:36:29.612Z,96.0
2018-06-11T00:37:31.005Z,95.9
2018-06-11T00:38:32.401Z,95.8
2018-06-11T00:39:33.945Z,95.9
2018-06-11T00:40:35.343Z,96.7
2018-06-11T00:41:36.733Z,96.0
2018-06-11T00:42:38.126Z,95.7
2018-06-11T00:43:39.518Z,96.1
2018-06-11T00:44:40.911Z,95.7
2018-06-11T00:45:42.309Z,96.3
2018-06-11T00:46:43.699Z,96.7
2018-06-11T00:47:45.090Z,96.4
2018-06-11T00:48:46.486Z,96.4
2018-06-11T00:49:47.897Z,96.0
2018-06-11T00:50:49.296Z,96.2
2018-06-11T00:51:50.686Z,96.7
2018-06-11T00:52:52.083Z,96.1
2018-06-11T00:53:53.475Z,96.5
2018-06-11T00:54:54.868Z,96.6
2018-06-11T00:55:56.261Z,96.3
2018-06-11T00:56:57.653Z,96.4
2018-06-11T00:57:59.055Z,96.3
2018-06-11T00:59:00.438Z,96.6
2018-06-11T01:00:01.833Z,95.9
2018-06-11T01:01:03.235Z,96.0
2018-06-11T01:02:04.619Z,95.8
2018-06-11T01:03:06.008Z,95.9
2018-06-11T01:04:07.400Z,95.9
2018-06-11T01:05:08.794Z,95.9
2018-06-11T01:06:10.188Z,95.9
2018-06-11T01:07:11.583Z,95.8
2018-06-11T01:08:12.971Z,96.2
2018-06-11T01:09:14.364Z,96.3
2018-06-11T01:10:15.762Z,96.0
2018-06-11T01:11:17.154Z,95.8
2018-06-11T01:12:18.545Z,95.8
2018-06-11T01:13:19.949Z,96.7
2018-06-11T01:14:21.334Z,96.6
2018-06-11T01:15:22.728Z,96.4
2018-06-11T01:16:24.115Z,96.4
2018-06-11T01:17:25.510Z,96.0
2018-06-11T01:18:26.902Z,96.1
2018-06-11T01:19:28.304Z,97.0
2018-06-11T01:20:29.704Z,96.5
2018-06-11T01:21:31.099Z,96.2
2018-06-11T01:22:32.500Z,97.0
2018-06-11T01:23:33.884Z,96.5
2018-06-11T01:24:35.275Z,97.1
2018-06-11T01:25:36.668Z,97.0
2018-06-11T01:26:38.062Z,96.8
2018-06-11T01:27:39.454Z,96.9
2018-06-11T01:28:40.850Z,96.9
2018-06-11T01:29:42.242Z,96.9
2018-06-11T01:30:43.632Z,96.6
2018-06-11T01:31:45.022Z,96.4
2018-06-11T01:32:46.415Z,96.2
2018-06-11T01:33:47.812Z,96.7
2018-06-11T01:34:49.213Z,96.9
2018-06-11T01:35:50.607Z,97.0
2018-06-11T01:36:51.998Z,97.4
2018-06-11T01:37:53.388Z,97.6
2018-06-11T01:38:54.780Z,97.0
2018-06-11T01:39:56.171Z,97.2
2018-06-11T01:40:57.563Z,97.2
2018-06-11T01:41:58.955Z,97.4
2018-06-11T01:43:00.352Z,97.0
2018-06-11T01:44:01.744Z,97.2
2018-06-11T01:45:03.133Z,97.6
2018-06-11T01:46:04.526Z,97.4
2018-06-11T01:47:05.916Z,97.7
2018-06-11T01:48:07.314Z,97.6
2018-06-11T01:49:08.705Z,97.6
2018-06-11T01:50:10.106Z,97.7
2018-06-11T01:51:11.495Z,97.9
2018-06-11T01:52:12.908Z,97.7
2018-06-11T01:53:14.302Z,97.6
2018-06-11T01:54:15.691Z,97.6
2018-06-11T01:55:17.090Z,97.5
2018-06-11T01:56:18.482Z,97.7
2018-06-11T01:57:19.872Z,98.0
2018-06-11T01:58:21.268Z,97.5
2018-06-11T01:59:22.657Z,98.3
2018-06-11T02:00:24.054Z,98.4
2018-06-11T02:01:25.446Z,98.6
2018-06-11T02:02:26.837Z,98.1
2018-06-11T02:03:28.267Z,98.3
2018-06-11T02:04:29.817Z,98.5
2018-06-11T02:05:31.208Z,98.2
2018-06-11T02:06:32.609Z,98.3
2018-06-11T02:07:33.998Z,98.3
2018-06-11T02:08:35.391Z,98.7
2018-06-11T02:09:36.783Z,99.0
2018-06-11T02:10:38.181Z,98.9
2018-06-11T02:11:39.572Z,99.1
2018-06-11T02:12:40.962Z,99.2
2018-06-11T02:13:42.353Z,98.8
2018-06-11T02:14:43.747Z,99.0
2018-06-11T02:15:45.136Z,99.2
2018-06-11T02:16:46.530Z,99.1
2018-06-11T02:17:47.926Z,99.3
2018-06-11T02:18:49.317Z,99.2
2018-06-11T02:19:50.709Z,99.5
2018-06-11T02:20:52.107Z,99.4
2018-06-11T02:21:53.510Z,98.9
2018-06-11T02:22:54.885Z,98.7
2018-06-11T02:23:56.274Z,99.1
2018-06-11T02:24:57.673Z,99.2
2018-06-11T02:25:59.070Z,99.0
2018-06-11T02:27:00.464Z,98.7
2018-06-11T02:28:01.860Z,98.9
2018-06-11T02:29:03.248Z,98.9
2018-06-11T02:30:04.643Z,98.8
2018-06-11T02:31:06.032Z,99.2
2018-06-11T02:32:07.427Z,99.3
2018-06-11T02:33:08.820Z,99.2
2018-06-11T02:34:10.210Z,99.3
2018-06-11T02:35:11.604Z,99.4
2018-06-11T02:36:13.008Z,99.4
2018-06-11T02:37:14.403Z,99.4
2018-06-11T02:38:15.793Z,99.4
2018-06-11T02:39:17.188Z,99.5
2018-06-11T02:40:18.578Z,99.3
2018-06-11T02:41:19.969Z,99.0
2018-06-11T02:42:21.357Z,99.4
2018-06-11T02:43:22.754Z,98.9
2018-06-11T02:44:24.149Z,99.0
2018-06-11T02:45:25.540Z,99.5
2018-06-11T02:46:26.940Z,99.2
2018-06-11T02:47:28.337Z,99.6
2018-06-11T02:48:29.794Z,99.4
2018-06-11T02:49:31.184Z,99.7
2018-06-11T02:50:32.577Z,99.5
2018-06-11T02:51:33.969Z,100.0
2018-06-11T02:52:35.363Z,100.0
2018-06-11T02:53:36.757Z,100.0
2018-06-11T02:54:38.152Z,100.0
2018-06-11T02:55:39.545Z,100.0
2018-06-11T02:56:40.936Z,100.0
2018-06-11T02:57:42.330Z,100.0
2018-06-11T02:58:43.726Z,100.0
2018-06-11T02:59:45.120Z,100.0
2018-06-11T03:00:46.512Z,100.0
2018-06-11T03:01:47.919Z,100.0
2018-06-11T03:02:49.321Z,100.0
2018-06-11T03:03:50.707Z,100.0
2018-06-11T03:04:52.102Z,100.0
2018-06-11T03:05:53.502Z,100.0
2018-06-11T03:06:54.895Z,100.0
2018-06-11T03:07:56.288Z,100.0
2018-06-11T03:08:57.685Z,100.0
2018-06-11T03:09:59.088Z,100.0
2018-06-11T03:11:00.473Z,100.0
2018-06-11T03:12:01.887Z,100.0
2018-06-11T03:13:03.278Z,100.0
2018-06-11T03:14:04.670Z,100.0
2018-06-11T03:15:06.065Z,100.0
2018-06-11T03:16:07.473Z,100.0
2018-06-11T03:17:08.855Z,100.0
2018-06-11T03:18:10.249Z,100.0
2018-06-11T03:19:11.644Z,100.0
2018-06-11T03:20:13.038Z,100.0
2018-06-11T03:21:14.452Z,100.0
2018-06-11T03:22:15.848Z,100.0
2018-06-11T03:23:17.242Z,100.0
2018-06-11T03:24:18.637Z,100.0
2018-06-11T03:25:20.030Z,100.0
2018-06-11T03:26:21.426Z,100.0
2018-06-11T03:27:22.815Z,100.0
2018-06-11T03:28:24.211Z,100.0
2018-06-11T03:29:25.607Z,100.0
2018-06-11T03:30:27.001Z,100.0
2018-06-11T03:31:28.499Z,100.0
2018-06-11T03:32:29.903Z,100.0
2018-06-11T03:33:31.298Z,100.0
2018-06-11T03:34:32.692Z,100.0
2018-06-11T03:35:34.089Z,100.0
2018-06-11T03:36:35.484Z,100.0
2018-06-11T03:37:36.883Z,100.0
2018-06-11T03:38:38.280Z,100.0
2018-06-11T03:39:39.672Z,100.0
2018-06-11T03:40:41.068Z,100.0
2018-06-11T03:41:42.469Z,100.0
2018-06-11T03:42:43.864Z,100.0
2018-06-11T03:43:45.260Z,100.0
2018-06-11T03:44:46.657Z,100.0
2018-06-11T03:45:48.061Z,100.0
2018-06-11T03:46:49.455Z,100.0
2018-06-11T03:47:50.850Z,100.0
2018-06-11T03:48:52.246Z,100.0
2018-06-11T03:49:53.646Z,100.0
2018-06-11T03:50:55.045Z,100.0
2018-06-11T03:51:56.444Z,100.0
2018-06-11T03:52:57.837Z,100.0
2018-06-11T03:53:59.234Z,100.0
2018-06-11T03:55:00.628Z,100.0
2018-06-11T03:56:02.029Z,100.0
2018-06-11T03:57:03.427Z,100.0
2018-06-11T03:58:04.826Z,100.0
2018-06-11T03:59:06.223Z,100.0
2018-06-11T04:00:07.620Z,100.0
2018-06-11T04:01:09.017Z,100.0
2018-06-11T04:02:10.417Z,100.0
2018-06-11T04:03:11.811Z,100.0
2018-06-11T04:04:13.208Z,100.0
2018-06-11T04:05:14.607Z,100.0
2018-06-11T04:06:16.008Z,100.0
2018-06-11T04:07:17.402Z,100.0
2018-06-11T04:08:18.795Z,100.0
2018-06-11T04:09:20.189Z,100.0
2018-06-11T04:10:21.585Z,100.0
2018-06-11T04:11:22.984Z,100.0
2018-06-11T04:12:24.383Z,100.0
2018-06-11T04:13:25.781Z,100.0
2018-06-11T04:14:27.177Z,100.0
2018-06-11T04:15:28.598Z,100.0
2018-06-11T04:16:30.102Z,100.0
2018-06-11T04:17:31.500Z,100.0
2018-06-11T04:18:32.897Z,100.0
2018-06-11T04:19:34.314Z,100.0
2018-06-11T04:20:35.746Z,100.0
2018-06-11T04:21:37.141Z,100.0
2018-06-11T04:22:38.551Z,100.0
2018-06-11T04:23:39.955Z,100.0
2018-06-11T04:24:41.342Z,100.0
2018-06-11T04:25:42.739Z,100.0
2018-06-11T04:26:44.136Z,100.0
2018-06-11T04:27:45.533Z,100.0
2018-06-11T04:28:46.928Z,100.0
2018-06-11T04:29:48.322Z,100.0
2018-06-11T04:30:49.716Z,100.0
2018-06-11T04:31:51.119Z,100.0
2018-06-11T04:32:52.519Z,100.0
2018-06-11T04:33:53.916Z,100.0
2018-06-11T04:34:55.312Z,100.0
2018-06-11T04:35:56.708Z,100.0
2018-06-11T04:36:58.101Z,100.0
2018-06-11T04:37:59.499Z,100.0
2018-06-11T04:39:00.894Z,100.0
2018-06-11T04:40:02.312Z,100.0
2018-06-11T04:41:03.705Z,100.0
2018-06-11T04:42:05.109Z,100.0
2018-06-11T04:43:06.503Z,100.0
2018-06-11T04:44:07.899Z,100.0
2018-06-11T04:45:09.298Z,100.0
2018-06-11T04:46:10.693Z,100.0
2018-06-11T04:47:12.094Z,100.0
2018-06-11T04:48:13.488Z,100.0
2018-06-11T04:49:14.886Z,100.0
2018-06-11T04:50:16.280Z,100.0
2018-06-11T04:51:17.675Z,100.0
2018-06-11T04:52:19.077Z,100.0
2018-06-11T04:53:20.472Z,100.0
2018-06-11T04:54:21.870Z,100.0
2018-06-11T04:55:23.273Z,100.0
2018-06-11T04:56:24.671Z,100.0
2018-06-11T04:57:26.064Z,100.0
2018-06-11T04:58:27.458Z,100.0
2018-06-11T04:59:28.873Z,100.0
2018-06-11T05:00:30.295Z,100.0
2018-06-11T05:01:31.689Z,100.0
2018-06-11T05:02:33.087Z,100.0
2018-06-11T05:03:34.491Z,100.0
2018-06-11T05:04:35.887Z,100.0
2018-06-11T05:05:37.285Z,100.0
2018-06-11T05:06:38.681Z,100.0
2018-06-11T05:07:40.078Z,100.0
2018-06-11T05:08:41.475Z,100.0
2018-06-11T05:09:42.875Z,100.0
2018-06-11T05:10:44.275Z,100.0
2018-06-11T05:11:45.671Z,100.0
2018-06-11T05:12:47.065Z,100.0
2018-06-11T05:13:48.463Z,100.0
2018-06-11T05:14:49.860Z,100.0
2018-06-11T05:15:51.259Z,100.0
2018-06-11T05:16:52.662Z,100.0
2018-06-11T05:17:54.056Z,99.4
2018-06-11T05:18:55.460Z,99.7
2018-06-11T05:19:56.842Z,99.8
2018-06-11T05:20:58.238Z,98.8
2018-06-11T05:21:59.652Z,98.9
2018-06-11T05:23:01.049Z,98.7
2018-06-11T05:24:02.450Z,99.2
2018-06-11T05:25:03.848Z,99.3
2018-06-11T05:26:05.241Z,99.3
2018-06-11T05:27:06.701Z,98.5
2018-06-11T05:28:08.107Z,98.3
2018-06-11T05:29:09.503Z,98.4
2018-06-11T05:30:10.902Z,98.1
2018-06-11T05:31:12.299Z,98.5
2018-06-11T05:32:13.698Z,98.9
2018-06-11T05:33:15.092Z,98.2
2018-06-11T05:34:16.488Z,97.3
2018-06-11T05:35:17.881Z,97.3
2018-06-11T05:36:19.275Z,97.6
2018-06-11T05:37:20.672Z,97.0
2018-06-11T05:38:22.072Z,96.9
2018-06-11T05:39:23.465Z,97.3
2018-06-11T05:40:24.913Z,97.3
2018-06-11T05:41:26.256Z,97.2
2018-06-11T05:42:27.653Z,97.5
2018-06-11T05:43:29.089Z,97.4
2018-06-11T05:44:30.529Z,97.7
2018-06-11T05:45:31.928Z,97.7
2018-06-11T05:46:33.321Z,97.6
2018-06-11T05:47:34.717Z,97.5
2018-06-11T05:48:36.115Z,96.8
2018-06-11T05:49:37.511Z,96.5
2018-06-11T05:50:38.906Z,95.9
2018-06-11T05:51:40.304Z,96.4
2018-06-11T05:52:41.706Z,95.4
2018-06-11T05:53:43.101Z,95.7
2018-06-11T05:54:44.504Z,95.4
2018-06-11T05:55:45.905Z,95.5
2018-06-11T05:56:47.296Z,94.7
2018-06-11T05:57:48.690Z,95.5
2018-06-11T05:58:50.086Z,95.7
2018-06-11T05:59:51.482Z,95.5
2018-06-11T06:00:52.884Z,95.4
2018-06-11T06:01:54.278Z,94.6
2018-06-11T06:02:55.672Z,94.5
2018-06-11T06:03:57.072Z,95.6
2018-06-11T06:04:58.467Z,95.5
2018-06-11T06:05:59.862Z,95.7
2018-06-11T06:07:01.262Z,95.9
2018-06-11T06:08:02.663Z,95.5
2018-06-11T06:09:04.060Z,96.0
2018-06-11T06:10:05.458Z,95.3
2018-06-11T06:11:06.856Z,96.3
2018-06-11T06:12:08.254Z,96.4
2018-06-11T06:13:09.654Z,96.1
2018-06-11T06:14:11.059Z,95.8
2018-06-11T06:15:12.451Z,96.5
2018-06-11T06:16:13.842Z,96.5
2018-06-11T06:17:15.241Z,96.6
2018-06-11T06:18:16.643Z,95.7
2018-06-11T06:19:18.035Z,96.2
2018-06-11T06:20:19.436Z,96.1
2018-06-11T06:21:20.835Z,96.4
2018-06-11T06:22:22.244Z,95.5
2018-06-11T06:23:23.642Z,95.2
2018-06-11T06:24:25.038Z,95.2
2018-06-11T06:25:26.435Z,95.5
2018-06-11T06:26:27.832Z,95.7
2018-06-11T06:27:29.395Z,95.3
2018-06-11T06:28:30.811Z,95.3
2018-06-11T06:29:32.208Z,95.3
2018-06-11T06:30:33.605Z,95.0
2018-06-11T06:31:35.002Z,95.4
2018-06-11T06:32:36.399Z,94.5
2018-06-11T06:33:37.797Z,94.3
2018-06-11T06:34:39.217Z,93.3
2018-06-11T06:35:40.595Z,93.8
2018-06-11T06:36:41.998Z,93.4
2018-06-11T06:37:43.395Z,93.1
2018-06-11T06:38:44.790Z,93.9
2018-06-11T06:39:46.187Z,94.6
2018-06-11T06:40:47.586Z,93.9
2018-06-11T06:41:48.983Z,93.4
2018-06-11T06:42:50.383Z,93.7
2018-06-11T06:43:51.779Z,92.9
2018-06-11T06:44:53.178Z,92.7
2018-06-11T06:45:54.573Z,93.0
2018-06-11T06:46:55.981Z,93.8
2018-06-11T06:47:57.365Z,93.3
2018-06-11T06:48:58.774Z,92.7
2018-06-11T06:50:00.174Z,92.8
2018-06-11T06:51:01.572Z,92.2
2018-06-11T06:52:03.000Z,92.0
2018-06-11T06:53:04.397Z,91.5
2018-06-11T06:54:05.811Z,91.5
2018-06-11T06:55:07.204Z,91.5
2018-06-11T06:56:08.604Z,91.7
2018-06-11T06:57:10.010Z,91.7
2018-06-11T06:58:11.406Z,90.9
2018-06-11T06:59:12.803Z,90.9
2018-06-11T07:00:14.199Z,90.3
2018-06-11T07:01:15.595Z,89.9
2018-06-11T07:02:17.042Z,90.5
2018-06-11T07:03:18.453Z,88.7
2018-06-11T07:04:19.857Z,88.5
2018-06-11T07:05:21.247Z,89.1
2018-06-11T07:06:22.642Z,89.1
2018-06-11T07:07:24.037Z,89.1
2018-06-11T07:08:25.435Z,88.7
2018-06-11T07:09:26.832Z,88.9
2018-06-11T07:10:28.246Z,89.4
2018-06-11T07:11:29.721Z,88.9
2018-06-11T07:12:31.118Z,88.4
2018-06-11T07:13:32.519Z,87.9
2018-06-11T07:14:33.911Z,87.3
2018-06-11T07:15:35.310Z,87.1
2018-06-11T07:16:36.708Z,86.7
2018-06-11T07:17:38.111Z,86.4
2018-06-11T07:18:39.513Z,86.2
2018-06-11T07:19:40.912Z,85.5
2018-06-11T07:20:42.315Z,85.7
2018-06-11T07:21:43.709Z,85.6
2018-06-11T07:22:45.108Z,85.5
2018-06-11T07:23:46.512Z,85.5
2018-06-11T07:24:47.904Z,85.2
2018-06-11T07:25:49.311Z,84.6
2018-06-11T07:26:50.717Z,84.9
2018-06-11T07:27:52.114Z,84.2
2018-06-11T07:28:53.507Z,85.2
2018-06-11T07:29:54.913Z,84.3
2018-06-11T07:30:56.313Z,84.3
2018-06-11T07:31:57.717Z,84.8
2018-06-11T07:32:59.119Z,84.5
2018-06-11T07:34:00.524Z,84.3
2018-06-11T07:35:01.982Z,84.2
2018-06-11T07:36:03.316Z,83.3
2018-06-11T07:37:04.717Z,83.4
2018-06-11T07:38:06.116Z,83.1
2018-06-11T07:39:07.516Z,82.0
2018-06-11T07:40:08.919Z,83.1
2018-06-11T07:41:10.317Z,82.8
2018-06-11T07:42:11.714Z,82.5
2018-06-11T07:43:13.112Z,82.8
2018-06-11T07:44:14.510Z,82.8
2018-06-11T07:45:15.910Z,82.7
2018-06-11T07:46:17.310Z,82.7
2018-06-11T07:47:18.713Z,82.8
2018-06-11T07:48:20.111Z,82.0
2018-06-11T07:49:21.509Z,81.5
2018-06-11T07:50:22.907Z,80.7
2018-06-11T07:51:24.308Z,80.1
2018-06-11T07:52:25.705Z,80.7
2018-06-11T07:53:27.122Z,80.0
2018-06-11T07:54:28.618Z,79.6
2018-06-11T07:55:30.028Z,79.4
2018-06-11T07:56:31.419Z,79.3
2018-06-11T07:57:32.820Z,79.6
2018-06-11T07:58:34.224Z,80.0
2018-06-11T07:59:35.618Z,81.0
2018-06-11T08:00:37.015Z,81.0
2018-06-11T08:01:38.418Z,81.4
2018-06-11T08:02:39.821Z,81.2
2018-06-11T08:03:41.221Z,80.9
2018-06-11T08:04:42.621Z,81.5
2018-06-11T08:05:44.016Z,80.2
2018-06-11T08:06:45.414Z,81.4
2018-06-11T08:07:46.816Z,81.4
2018-06-11T08:08:48.216Z,81.5
2018-06-11T08:09:49.617Z,80.6
2018-06-11T08:10:51.015Z,80.1
2018-06-11T08:11:52.412Z,80.0
2018-06-11T08:12:53.814Z,80.1
2018-06-11T08:13:55.211Z,80.7
2018-06-11T08:14:56.609Z,80.7
2018-06-11T08:15:58.008Z,80.6
2018-06-11T08:16:59.408Z,79.7
2018-06-11T08:18:00.811Z,79.9
2018-06-11T08:19:02.209Z,80.3
2018-06-11T08:20:03.639Z,81.0
2018-06-11T08:21:05.011Z,81.4
2018-06-11T08:22:06.414Z,80.1
2018-06-11T08:23:07.810Z,79.3
2018-06-11T08:24:09.212Z,80.6
2018-06-11T08:25:10.610Z,80.3
2018-06-11T08:26:12.009Z,80.0
2018-06-11T08:27:13.407Z,79.3
2018-06-11T08:28:14.802Z,79.1
2018-06-11T08:29:16.207Z,79.5
2018-06-11T08:30:17.608Z,80.1
2018-06-11T08:31:19.006Z,79.7
2018-06-11T08:32:20.407Z,79.4
2018-06-11T08:33:21.808Z,79.1
2018-06-11T08:34:23.208Z,79.1
2018-06-11T08:35:24.610Z,78.8
2018-06-11T08:36:26.018Z,78.5
2018-06-11T08:37:27.467Z,78.1
2018-06-11T08:38:28.872Z,76.6
2018-06-11T08:39:30.267Z,77.1
2018-06-11T08:40:31.659Z,77.3
2018-06-11T08:41:33.073Z,77.3
2018-06-11T08:42:34.464Z,78.0
2018-06-11T08:43:35.865Z,77.0
2018-06-11T08:44:37.263Z,76.4
2018-06-11T08:45:38.666Z,77.4
2018-06-11T08:46:40.069Z,78.7
2018-06-11T08:47:41.461Z,78.1
2018-06-11T08:48:42.862Z,76.8
2018-06-11T08:49:44.263Z,77.0
2018-06-11T08:50:45.661Z,75.8
2018-06-11T08:51:47.061Z,76.7
2018-06-11T08:52:48.463Z,76.6
2018-06-11T08:53:49.860Z,75.3
2018-06-11T08:54:51.260Z,75.3
2018-06-11T08:55:52.658Z,75.9
2018-06-11T08:56:54.058Z,75.6
2018-06-11T08:57:55.458Z,76.8
2018-06-11T08:58:56.859Z,75.8
2018-06-11T08:59:58.299Z,77.4
2018-06-11T09:00:59.655Z,78.4
2018-06-11T09:02:01.064Z,78.7
2018-06-11T09:03:02.463Z,78.4
2018-06-11T09:04:03.862Z,77.6
2018-06-11T09:05:05.266Z,76.8
2018-06-11T09:06:06.663Z,78.4
2018-06-11T09:07:08.095Z,77.9
2018-06-11T09:08:09.465Z,77.2
2018-06-11T09:09:10.865Z,78.0
2018-06-11T09:10:12.263Z,78.4
2018-06-11T09:11:13.668Z,78.6
2018-06-11T09:12:15.064Z,78.4
2018-06-11T09:13:16.465Z,78.8
2018-06-11T09:14:17.870Z,79.1
2018-06-11T09:15:19.270Z,78.6
2018-06-11T09:16:20.669Z,78.8
2018-06-11T09:17:22.068Z,78.0
2018-06-11T09:18:23.624Z,77.8
2018-06-11T09:19:24.867Z,77.8
2018-06-11T09:20:26.335Z,78.0
2018-06-11T09:21:27.715Z,77.4
2018-06-11T09:22:29.112Z,77.9
2018-06-11T09:23:30.512Z,78.1
2018-06-11T09:24:31.921Z,77.3
2018-06-11T09:25:33.323Z,76.8
2018-06-11T09:26:34.726Z,76.1
2018-06-11T09:27:36.125Z,76.0
2018-06-11T09:28:37.526Z,75.8
2018-06-11T09:29:38.928Z,76.5
2018-06-11T09:30:40.330Z,77.5
2018-06-11T09:31:41.729Z,76.8
2018-06-11T09:32:43.136Z,76.1
2018-06-11T09:33:44.535Z,74.8
2018-06-11T09:34:45.951Z,74.6
2018-06-11T09:35:47.351Z,73.4
2018-06-11T09:36:48.748Z,74.3
2018-06-11T09:37:50.153Z,74.5
2018-06-11T09:38:51.544Z,73.5
2018-06-11T09:39:52.955Z,73.0
2018-06-11T09:40:54.359Z,73.3
2018-06-11T09:41:55.757Z,72.6
2018-06-11T09:42:57.160Z,72.7
2018-06-11T09:43:58.741Z,72.8
2018-06-11T09:44:59.955Z,73.0
2018-06-11T09:46:01.356Z,74.0
2018-06-11T09:47:02.758Z,73.8
2018-06-11T09:48:04.160Z,74.3
2018-06-11T09:49:05.573Z,74.9
2018-06-11T09:50:06.963Z,73.3
2018-06-11T09:51:08.362Z,72.3
2018-06-11T09:52:09.764Z,72.8
2018-06-11T09:53:11.161Z,72.7
2018-06-11T09:54:12.562Z,72.4
2018-06-11T09:55:13.961Z,72.3
2018-06-11T09:56:15.360Z,74.3
2018-06-11T09:57:16.780Z,75.1
2018-06-11T09:58:18.201Z,73.0
2018-06-11T09:59:19.605Z,73.0
2018-06-11T10:00:21.010Z,73.4
2018-06-11T10:01:22.420Z,72.0
2018-06-11T10:02:23.823Z,72.2
2018-06-11T10:03:25.251Z,73.1
2018-06-11T10:04:26.633Z,72.1
2018-06-11T10:05:28.043Z,72.0
2018-06-11T10:06:29.450Z,72.1
2018-06-11T10:07:30.854Z,71.7
2018-06-11T10:08:32.250Z,71.7
2018-06-11T10:09:33.653Z,70.8
2018-06-11T10:10:35.057Z,71.2
2018-06-11T10:11:36.460Z,72.4
2018-06-11T10:12:37.858Z,72.7
2018-06-11T10:13:39.284Z,72.6
2018-06-11T10:14:40.662Z,71.6
2018-06-11T10:15:42.062Z,72.0
2018-06-11T10:16:43.466Z,71.9
2018-06-11T10:17:44.872Z,72.1
2018-06-11T10:18:46.272Z,72.0
2018-06-11T10:19:47.676Z,71.9
2018-06-11T10:20:49.073Z,71.9
2018-06-11T10:21:50.473Z,70.7
2018-06-11T10:22:51.875Z,68.8
2018-06-11T10:23:53.279Z,70.1
2018-06-11T10:24:54.730Z,68.9
2018-06-11T10:25:56.088Z,67.8
2018-06-11T10:26:57.487Z,68.9
2018-06-11T10:27:58.885Z,67.9
2018-06-11T10:29:00.285Z,66.9
2018-06-11T10:30:01.692Z,66.6
2018-06-11T10:31:03.087Z,67.1
2018-06-11T10:32:04.487Z,68.2
2018-06-11T10:33:05.892Z,65.9
2018-06-11T10:34:07.295Z,66.7
2018-06-11T10:35:08.697Z,67.9
2018-06-11T10:36:10.099Z,67.2
2018-06-11T10:37:11.507Z,67.3
2018-06-11T10:38:12.901Z,65.0
2018-06-11T10:39:14.355Z,63.5
2018-06-11T10:40:15.709Z,64.9
2018-06-11T10:41:17.106Z,64.6
2018-06-11T10:42:18.511Z,64.0
2018-06-11T10:43:19.912Z,63.7
2018-06-11T10:44:21.315Z,63.5
2018-06-11T10:45:22.718Z,62.1
2018-06-11T10:46:24.120Z,62.8
2018-06-11T10:47:25.562Z,63.1
2018-06-11T10:48:26.982Z,64.3
2018-06-11T10:49:28.384Z,63.7
2018-06-11T10:50:29.789Z,64.1
2018-06-11T10:51:31.190Z,63.1
2018-06-11T10:52:32.593Z,62.4
2018-06-11T10:53:34.002Z,62.0
2018-06-11T10:54:35.426Z,61.3
2018-06-11T10:55:36.867Z,61.8
2018-06-11T10:56:38.293Z,62.2
2018-06-11T10:57:39.702Z,61.6
2018-06-11T10:58:41.096Z,61.0
2018-06-11T10:59:42.500Z,59.4
2018-06-11T11:00:43.913Z,60.7
2018-06-11T11:01:45.318Z,58.9
2018-06-11T11:02:46.719Z,59.2
2018-06-11T11:03:48.160Z,60.6
2018-06-11T11:04:49.530Z,61.7
2018-06-11T11:05:50.933Z,61.3
2018-06-11T11:06:52.342Z,60.8
2018-06-11T11:07:53.763Z,61.6
2018-06-11T11:08:55.250Z,60.7
2018-06-11T11:09:56.656Z,61.0
2018-06-11T11:10:58.062Z,59.7
2018-06-11T11:11:59.465Z,59.5
2018-06-11T11:13:00.897Z,59.0
2018-06-11T11:14:02.285Z,59.2
2018-06-11T11:15:03.722Z,58.7
2018-06-11T11:16:05.121Z,59.5
2018-06-11T11:17:06.525Z,57.0
2018-06-11T11:18:07.927Z,56.7
2018-06-11T11:19:09.331Z,56.8
2018-06-11T11:20:10.735Z,56.9
2018-06-11T11:21:12.144Z,56.8
2018-06-11T11:22:13.546Z,57.1
2018-06-11T11:23:14.954Z,55.4
2018-06-11T11:24:16.357Z,56.0
2018-06-11T11:25:17.759Z,55.8
2018-06-11T11:26:19.162Z,55.0
2018-06-11T11:27:20.569Z,55.1
2018-06-11T11:28:21.971Z,54.9
2018-06-11T11:29:23.383Z,53.7
2018-06-11T11:30:24.830Z,55.0
2018-06-11T11:31:26.230Z,53.5
2018-06-11T11:32:27.633Z,53.8
2018-06-11T11:33:29.036Z,53.8
2018-06-11T11:34:30.447Z,52.2
2018-06-11T11:35:31.853Z,52.4
2018-06-11T11:36:33.260Z,53.4
2018-06-11T11:37:34.676Z,52.4
2018-06-11T11:38:36.078Z,53.1
2018-06-11T11:39:37.491Z,51.9
2018-06-11T11:40:38.905Z,51.7
2018-06-11T11:41:40.314Z,50.5
2018-06-11T11:42:41.717Z,50.8
2018-06-11T11:43:43.125Z,49.5
2018-06-11T11:44:44.537Z,49.9
2018-06-11T11:45:45.942Z,49.5
2018-06-11T11:46:47.346Z,49.2
2018-06-11T11:47:48.754Z,48.9
2018-06-11T11:48:50.160Z,49.7
2018-06-11T11:49:51.571Z,47.9
2018-06-11T11:50:52.985Z,48.6
2018-06-11T11:51:54.393Z,47.7
2018-06-11T11:52:55.797Z,49.2
2018-06-11T11:53:57.207Z,49.1
2018-06-11T11:54:58.609Z,48.4
2018-06-11T11:56:00.018Z,47.2
2018-06-11T11:57:01.436Z,47.8
2018-06-11T11:58:02.847Z,48.8
2018-06-11T11:59:04.254Z,47.7
2018-06-11T12:00:05.658Z,48.3
2018-06-11T12:01:07.065Z,48.6
2018-06-11T12:02:08.467Z,48.7
2018-06-11T12:03:09.874Z,49.5
2018-06-11T12:04:11.280Z,49.5
2018-06-11T12:05:12.683Z,49.3
2018-06-11T12:06:14.099Z,49.5
2018-06-11T12:07:15.501Z,49.6
2018-06-11T12:08:16.906Z,49.5
2018-06-11T12:09:18.309Z,49.5
2018-06-11T12:10:19.714Z,49.5
2018-06-11T12:11:21.118Z,50.0
2018-06-11T12:12:22.522Z,49.8
2018-06-11T12:13:24.030Z,50.7
2018-06-11T12:14:25.432Z,51.2
2018-06-11T12:15:26.836Z,51.0
2018-06-11T12:16:28.235Z,50.6
2018-06-11T12:17:29.639Z,50.6
2018-06-11T12:18:31.042Z,49.7
2018-06-11T12:19:32.444Z,51.0
2018-06-11T12:20:33.850Z,51.1
2018-06-11T12:21:35.254Z,51.9
2018-06-11T12:22:36.706Z,52.9
2018-06-11T12:23:38.121Z,51.3
2018-06-11T12:24:39.521Z,51.4
2018-06-11T12:25:40.924Z,51.6
2018-06-11T12:26:42.328Z,53.2
2018-06-11T12:27:43.741Z,52.3
2018-06-11T12:28:45.179Z,51.8
2018-06-11T12:29:46.582Z,51.9
2018-06-11T12:30:47.990Z,52.0
2018-06-11T12:31:49.390Z,51.7
2018-06-11T12:32:50.793Z,51.3
2018-06-11T12:33:52.199Z,52.8
2018-06-11T12:34:53.606Z,53.0
2018-06-11T12:35:55.008Z,51.4
2018-06-11T12:36:56.414Z,52.2
2018-06-11T12:37:57.818Z,51.5
2018-06-11T12:38:59.223Z,52.7
2018-06-11T12:40:00.631Z,52.9
2018-06-11T12:41:02.041Z,52.0
2018-06-11T12:42:03.448Z,53.2
2018-06-11T12:43:04.850Z,53.4
2018-06-11T12:44:06.250Z,53.3
2018-06-11T12:45:07.655Z,52.8
2018-06-11T12:46:09.055Z,52.0
2018-06-11T12:47:10.464Z,53.2
2018-06-11T12:48:11.863Z,52.8
2018-06-11T12:49:13.275Z,52.2
2018-06-11T12:50:14.682Z,53.3
2018-06-11T12:51:16.084Z,53.3
2018-06-11T12:52:17.489Z,53.2
2018-06-11T12:53:18.892Z,53.2
2018-06-11T12:54:20.297Z,51.2
2018-06-11T12:55:21.705Z,51.5
2018-06-11T12:56:23.191Z,52.8
2018-06-11T12:57:24.567Z,51.8
2018-06-11T12:58:25.972Z,52.9
2018-06-11T12:59:27.369Z,50.6
2018-06-11T13:00:28.775Z,50.5
2018-06-11T13:01:30.218Z,50.5
2018-06-11T13:02:31.581Z,51.8
2018-06-11T13:03:32.983Z,51.7
2018-06-11T13:04:34.388Z,51.6
2018-06-11T13:05:35.788Z,51.6
2018-06-11T13:06:37.194Z,53.7
2018-06-11T13:07:38.600Z,52.9
2018-06-11T13:08:39.996Z,53.2
2018-06-11T13:09:41.399Z,51.6
2018-06-11T13:10:42.806Z,51.5
2018-06-11T13:11:44.204Z,52.1
2018-06-11T13:12:45.604Z,49.5
2018-06-11T13:13:47.006Z,51.8
2018-06-11T13:14:48.409Z,52.9
2018-06-11T13:15:49.810Z,51.9
2018-06-11T13:16:51.236Z,52.7
2018-06-11T13:17:52.640Z,51.6
2018-06-11T13:18:54.040Z,52.7
2018-06-11T13:19:55.436Z,50.6
2018-06-11T13:20:56.841Z,51.3
2018-06-11T13:21:58.242Z,53.2
2018-06-11T13:22:59.646Z,53.2
2018-06-11T13:24:01.046Z,51.9
2018-06-11T13:25:02.450Z,51.8
2018-06-11T13:26:03.851Z,53.0
2018-06-11T13:27:05.251Z,54.5
2018-06-11T13:28:06.653Z,54.4
2018-06-11T13:29:08.058Z,53.0
2018-06-11T13:30:09.474Z,53.0
2018-06-11T13:31:10.881Z,53.0
2018-06-11T13:32:12.282Z,54.6